Time;durP1;ratioP1;P1;durP2;ratioP2;P2;SDS_P1;SDS_P2;PMS_P1;PMS_P2;Temp;Humidity;BMP_temperature;BMP_pressure;BME280_temperature;BME280_humidity;BME280_pressure;Samples;Min_cycle;Max_cycle;Signal;HPM_P1;HPM_P2
2022/01/09 00:00:20;;;;;;;17.08;5.68;;;;;;;3.91;77.66;97884.06;4981788;28;20125;-76
2022/01/09 00:02:47;;;;;;;16.42;5.57;;;;;;;3.89;77.49;97885.97;4966555;28;20049;-76
2022/01/09 00:05:15;;;;;;;16.08;5.20;;;;;;;3.91;77.42;97878.81;4984299;28;20391;-76
2022/01/09 00:07:42;;;;;;;21.80;7.10;;;;;;;3.91;77.55;97882.25;4983549;28;20696;-76
2022/01/09 00:10:10;;;;;;;27.35;7.15;;;;;;;3.92;77.76;97869.97;4982304;28;20046;-76
2022/01/09 00:12:37;;;;;;;26.27;7.55;;;;;;;3.93;78.02;97863.75;4983808;28;20058;-76
2022/01/09 00:15:05;;;;;;;21.30;7.28;;;;;;;3.95;77.86;97868.88;4974745;28;20057;-76
2022/01/09 00:17:32;;;;;;;13.05;5.80;;;;;;;3.94;78.06;97860.13;4981223;28;20039;-76
2022/01/09 00:19:59;;;;;;;13.07;4.70;;;;;;;3.93;78.14;97863.75;4983961;28;20490;-76
2022/01/09 00:22:47;;;;;;;7.15;2.75;;;;;;;3.94;78.18;97852.25;4984895;28;20050;-76
2022/01/09 00:25:15;;;;;;;16.42;4.03;;;;;;;3.94;78.22;97849.63;4978766;28;20046;-76
2022/01/09 00:27:42;;;;;;;11.43;4.00;;;;;;;3.95;78.01;97840.78;4978216;28;20050;-76
2022/01/09 00:30:11;;;;;;;8.52;3.65;;;;;;;3.95;78.13;97838.16;4977469;28;20548;-76
2022/01/09 00:32:39;;;;;;;10.25;4.40;;;;;;;3.96;78.01;97839.00;4981627;28;20486;-76
2022/01/09 00:35:06;;;;;;;6.93;3.35;;;;;;;3.96;78.54;97829.31;4962525;28;20042;-76
2022/01/09 00:37:33;;;;;;;6.18;3.08;;;;;;;3.96;78.42;97834.56;4984015;28;20517;-76
2022/01/09 00:39:59;;;;;;;7.70;4.03;;;;;;;3.95;78.59;97822.41;4983929;28;20367;-76
2022/01/09 00:42:26;;;;;;;4.65;2.78;;;;;;;3.97;78.55;97817.00;4983929;28;20061;-76
2022/01/09 00:44:53;;;;;;;7.55;3.38;;;;;;;3.96;78.51;97816.19;4986804;28;20053;-76
2022/01/09 00:47:20;;;;;;;6.20;2.78;;;;;;;3.97;78.54;97793.38;4981577;28;20671;-76
2022/01/09 00:49:46;;;;;;;5.82;2.20;;;;;;;3.98;78.95;97805.56;4996443;28;20053;-76
2022/01/09 00:52:13;;;;;;;6.57;3.10;;;;;;;3.98;78.75;97792.41;4980454;28;20093;-76
2022/01/09 00:54:40;;;;;;;5.43;2.67;;;;;;;3.98;78.83;97790.63;4982071;28;20079;-76
2022/01/09 00:57:07;;;;;;;10.85;3.63;;;;;;;3.98;79.03;97781.91;4978563;28;20105;-76
2022/01/09 00:59:34;;;;;;;7.18;3.15;;;;;;;3.98;79.10;97774.84;4983488;28;20046;-76
2022/01/09 01:02:01;;;;;;;6.63;2.90;;;;;;;3.99;78.96;97776.50;4982206;28;20046;-76
2022/01/09 01:04:27;;;;;;;4.57;2.47;;;;;;;3.98;78.91;97761.72;4988643;28;20074;-76
2022/01/09 01:06:54;;;;;;;7.43;3.50;;;;;;;3.99;79.10;97768.63;4987815;28;20049;-76
2022/01/09 01:09:23;;;;;;;6.63;3.08;;;;;;;3.99;79.39;97759.91;4972008;28;20039;-76
2022/01/09 01:11:50;;;;;;;7.15;2.85;;;;;;;4.00;79.39;97757.16;4978219;28;20046;-76
2022/01/09 01:14:22;;;;;;;7.38;3.08;;;;;;;4.01;79.28;97763.25;4965364;28;20042;-76
2022/01/09 01:16:49;;;;;;;5.63;2.45;;;;;;;4.00;79.56;97749.28;4981603;28;20121;-76
2022/01/09 01:19:17;;;;;;;9.43;2.47;;;;;;;4.00;79.26;97746.66;4962496;28;20129;-76
2022/01/09 01:21:43;;;;;;;6.47;2.40;;;;;;;4.01;79.17;97737.78;4946306;28;20446;-76
2022/01/09 01:24:10;;;;;;;3.42;2.20;;;;;;;4.02;79.63;97736.00;4961393;28;20137;-76
2022/01/09 01:26:37;;;;;;;4.55;2.20;;;;;;;4.02;79.43;97725.47;4968272;28;20637;-76
2022/01/09 01:29:04;;;;;;;5.20;2.00;;;;;;;4.02;79.60;97726.34;4979453;28;20476;-76
2022/01/09 01:31:31;;;;;;;3.95;1.92;;;;;;;4.02;79.59;97721.09;4982239;28;20050;-76
2022/01/09 01:33:57;;;;;;;5.00;2.00;;;;;;;4.02;79.93;97723.72;4986471;28;20053;-76
2022/01/09 01:36:24;;;;;;;2.15;1.60;;;;;;;4.03;79.74;97720.09;4979002;28;20050;-76
2022/01/09 01:38:51;;;;;;;3.42;1.77;;;;;;;4.04;79.96;97719.13;4980203;28;20506;-76
2022/01/09 01:41:17;;;;;;;3.10;1.63;;;;;;;4.03;80.01;97714.84;4979856;28;20391;-76
2022/01/09 01:43:44;;;;;;;3.40;1.20;;;;;;;4.06;79.95;97721.59;4978747;28;20054;-76
2022/01/09 01:46:11;;;;;;;2.83;1.20;;;;;;;4.04;80.25;97708.59;4980559;28;20600;-76
2022/01/09 01:48:38;;;;;;;3.33;1.38;;;;;;;4.06;80.13;97713.72;4981935;28;20387;-76
2022/01/09 01:51:05;;;;;;;6.65;2.60;;;;;;;4.06;80.15;97703.22;4982937;28;21344;-76
2022/01/09 01:53:31;;;;;;;2.42;1.23;;;;;;;4.06;80.24;97703.22;4982955;28;20046;-76
2022/01/09 01:56:00;;;;;;;2.78;1.30;;;;;;;4.08;80.51;97712.59;4981972;28;20042;-76
2022/01/09 01:58:31;;;;;;;1.75;0.90;;;;;;;4.03;80.76;97698.28;4985698;28;20049;-76
2022/01/09 02:00:58;;;;;;;1.30;0.70;;;;;;;4.05;80.57;97691.91;4986412;28;20053;-76
2022/01/09 02:03:24;;;;;;;1.27;1.00;;;;;;;4.05;80.98;97704.22;4982029;28;20051;-76
2022/01/09 02:05:52;;;;;;;1.75;0.90;;;;;;;4.06;80.91;97695.34;4997654;28;20486;-76
2022/01/09 02:08:18;;;;;;;1.75;1.02;;;;;;;4.07;80.84;97691.72;4984262;28;20050;-76
2022/01/09 02:10:45;;;;;;;1.00;0.90;;;;;;;4.09;81.13;97695.03;4985726;28;20038;-76
2022/01/09 02:13:12;;;;;;;0.90;0.70;;;;;;;4.04;81.33;97697.28;4986893;28;20046;-76
2022/01/09 02:15:47;;;;;;;2.70;1.00;;;;;;;4.01;81.17;97693.16;4982115;28;20104;-76
2022/01/09 02:18:19;;;;;;;1.75;0.95;;;;;;;4.01;81.13;97695.78;4964888;28;20042;-76
2022/01/09 02:20:47;;;;;;;0.70;0.70;;;;;;;4.06;80.85;97690.91;4987229;28;20075;-76
2022/01/09 02:23:15;;;;;;;0.82;0.57;;;;;;;4.06;81.43;97696.16;4983881;28;20039;-76
2022/01/09 02:25:43;;;;;;;1.27;0.70;;;;;;;4.08;81.17;97690.78;4971555;28;20133;-76
2022/01/09 02:28:11;;;;;;;1.50;0.70;;;;;;;4.08;81.23;97690.78;4982908;28;20141;-76
2022/01/09 02:30:38;;;;;;;1.15;0.80;;;;;;;4.06;81.60;97693.53;4969715;28;20067;-76
2022/01/09 02:33:08;;;;;;;0.68;0.40;;;;;;;4.09;81.07;97695.03;4990668;28;20500;-76
2022/01/09 02:35:36;;;;;;;0.80;0.50;;;;;;;4.09;81.27;97693.25;4986286;28;20050;-76
2022/01/09 02:38:04;;;;;;;0.63;0.40;;;;;;;4.12;81.12;97686.88;4982336;28;20046;-76
2022/01/09 02:40:31;;;;;;;0.60;0.57;;;;;;;4.09;81.11;97685.34;4982972;28;20105;-76
2022/01/09 02:42:58;;;;;;;3.15;0.82;;;;;;;4.12;81.34;97692.13;4969256;28;20384;-76
2022/01/09 02:45:27;;;;;;;2.28;0.80;;;;;;;4.10;81.33;97691.47;4984350;28;20081;-76
2022/01/09 02:47:56;;;;;;;0.55;0.50;;;;;;;4.14;81.20;97695.44;4984704;28;20053;-76
2022/01/09 02:52:54;;;;;;;0.77;0.70;;;;;;;4.15;81.26;97686.59;4982408;28;20129;-76
2022/01/09 02:55:22;;;;;;;1.42;0.65;;;;;;;4.15;81.35;97686.59;4972844;28;20140;-76
2022/01/09 02:57:59;;;;;;;1.00;0.70;;;;;;;4.08;81.47;97696.84;5001286;28;20153;-76
2022/01/09 03:00:29;;;;;;;0.73;0.60;;;;;;;4.15;81.27;97697.09;4961869;28;20051;-76
2022/01/09 03:02:56;;;;;;;1.33;0.80;;;;;;;4.16;81.66;97698.75;4966095;28;20038;-76
2022/01/09 03:05:23;;;;;;;0.73;0.63;;;;;;;4.16;81.35;97704.00;4984653;28;20042;-76
2022/01/09 03:07:50;;;;;;;1.35;0.50;;;;;;;4.19;81.78;97700.25;4971823;28;20533;-76
2022/01/09 03:10:18;;;;;;;0.47;0.45;;;;;;;4.19;81.80;97697.63;4987473;28;20047;-76
2022/01/09 03:12:46;;;;;;;1.38;0.68;;;;;;;4.19;81.79;97700.25;4985233;28;20049;-76
2022/01/09 03:15:13;;;;;;;0.50;0.43;;;;;;;4.19;82.04;97701.06;4986779;28;20109;-76
2022/01/09 03:17:41;;;;;;;0.93;0.50;;;;;;;4.20;81.81;97696.63;4971652;28;20050;-76
2022/01/09 03:20:11;;;;;;;1.15;0.70;;;;;;;4.20;81.99;97700.09;4984996;28;20831;-76
2022/01/09 03:22:38;;;;;;;1.48;0.68;;;;;;;4.20;82.29;97701.88;4967299;28;20062;-76
2022/01/09 03:25:05;;;;;;;1.40;0.50;;;;;;;4.21;82.17;97699.13;4974037;28;20042;-76
2022/01/09 03:27:32;;;;;;;1.05;1.00;;;;;;;4.20;82.62;97700.09;4979245;28;20145;-76
2022/01/09 03:29:59;;;;;;;1.50;0.77;;;;;;;4.25;82.63;97692.63;4984210;28;20045;-76
2022/01/09 03:32:26;;;;;;;0.47;0.45;;;;;;;4.28;82.26;97707.25;4984585;28;20402;-76
2022/01/09 03:34:53;;;;;;;3.22;0.80;;;;;;;4.28;82.84;97707.25;4983455;28;20053;-76
2022/01/09 03:37:19;;;;;;;2.63;0.68;;;;;;;4.32;82.86;97700.69;4979574;28;20738;-76
2022/01/09 03:39:46;;;;;;;1.23;0.50;;;;;;;4.32;83.19;97712.03;4968834;28;20047;-76
2022/01/09 03:42:13;;;;;;;3.47;0.47;;;;;;;4.38;83.50;97708.00;4987637;28;20494;-76
2022/01/09 03:44:40;;;;;;;0.70;0.35;;;;;;;4.42;84.38;97713.78;4970736;28;20122;-76
2022/01/09 03:47:07;;;;;;;1.30;0.38;;;;;;;4.40;84.09;97726.22;4977938;28;20487;-76
2022/01/09 03:49:34;;;;;;;0.50;0.40;;;;;;;4.37;84.04;97726.53;4982134;28;20042;-76
2022/01/09 03:52:01;;;;;;;0.82;0.52;;;;;;;4.41;84.04;97733.16;4982381;28;20053;-76
2022/01/09 03:54:27;;;;;;;1.10;0.70;;;;;;;4.44;84.92;97732.84;4971088;28;20046;-76
2022/01/09 03:56:54;;;;;;;0.40;0.40;;;;;;;4.46;84.62;97730.91;4979439;28;20394;-76
2022/01/09 03:59:21;;;;;;;0.35;0.30;;;;;;;4.47;85.16;97743.88;4983542;28;20045;-76
2022/01/09 04:01:47;;;;;;;1.92;0.50;;;;;;;4.43;84.92;97741.72;4983132;28;20437;-76
2022/01/09 04:04:14;;;;;;;1.90;0.60;;;;;;;4.45;84.50;97748.50;4982681;28;20540;-76
2022/01/09 04:06:49;;;;;;;0.30;0.30;;;;;;;4.50;84.75;97748.88;4982990;28;20624;-76
2022/01/09 04:09:38;;;;;;;0.88;0.50;;;;;;;4.45;84.79;97753.75;4984532;28;20038;-76
2022/01/09 04:12:14;;;;;;;1.13;0.40;;;;;;;4.49;84.82;97757.72;4973048;28;20044;-76
2022/01/09 04:14:42;;;;;;;0.73;0.40;;;;;;;4.56;84.97;97752.69;4980515;28;20903;-76
2022/01/09 04:17:15;;;;;;;0.60;0.50;;;;;;;4.47;85.09;97757.03;4983243;28;20053;-76
2022/01/09 04:19:42;;;;;;;0.75;0.50;;;;;;;4.50;84.94;97755.91;4945411;28;20095;-76
2022/01/09 04:22:08;;;;;;;0.68;0.40;;;;;;;4.47;85.18;97774.59;4964007;28;20051;-76
2022/01/09 04:24:35;;;;;;;0.65;0.63;;;;;;;4.45;85.10;97781.81;4970267;28;20478;-76
2022/01/09 04:27:02;;;;;;;0.60;0.40;;;;;;;4.56;85.34;97774.53;4980270;28;20108;-76
2022/01/09 04:29:29;;;;;;;0.90;0.38;;;;;;;4.54;85.49;97770.41;4985637;28;20073;-76
2022/01/09 04:31:56;;;;;;;1.55;0.60;;;;;;;4.50;85.71;97796.19;4983175;28;20042;-76
2022/01/09 04:34:22;;;;;;;0.90;0.40;;;;;;;4.51;85.21;97799.63;4971287;28;20042;-76
2022/01/09 04:36:50;;;;;;;1.98;0.55;;;;;;;4.56;84.95;97798.19;4983650;28;20390;-76
2022/01/09 04:39:17;;;;;;;0.63;0.52;;;;;;;4.58;85.53;97816.47;4987372;28;20049;-76
2022/01/09 04:41:43;;;;;;;0.95;0.45;;;;;;;4.61;85.76;97839.00;4966063;28;20555;-76
2022/01/09 04:44:10;;;;;;;0.57;0.40;;;;;;;4.53;85.71;97829.22;4981821;28;20371;-76
2022/01/09 04:46:46;;;;;;;1.42;0.30;;;;;;;4.57;85.85;97849.78;4983149;28;20047;-76
2022/01/09 04:49:14;;;;;;;1.58;0.50;;;;;;;4.55;85.45;97846.50;4983470;28;20072;-76
2022/01/09 04:51:40;;;;;;;0.63;0.60;;;;;;;4.54;85.56;97855.34;4986213;28;20557;-76
2022/01/09 04:54:07;;;;;;;0.50;0.32;;;;;;;4.55;85.26;97870.16;4983150;28;20052;-76
2022/01/09 04:56:34;;;;;;;2.03;0.47;;;;;;;4.58;85.19;97876.94;4982841;28;20076;-76
2022/01/09 04:59:01;;;;;;;0.43;0.40;;;;;;;4.57;85.55;97883.13;4966863;28;20050;-76
2022/01/09 05:01:32;;;;;;;1.67;0.65;;;;;;;4.59;85.35;97888.25;5001633;28;20061;-76
2022/01/09 05:04:00;;;;;;;1.40;0.50;;;;;;;4.59;85.24;97890.88;4980138;28;20050;-76
2022/01/09 05:06:27;;;;;;;0.80;0.43;;;;;;;4.56;85.75;97921.75;4950970;28;20053;-76
2022/01/09 05:08:54;;;;;;;0.35;0.35;;;;;;;4.58;85.44;97916.34;4986654;28;20053;-76
2022/01/09 05:11:20;;;;;;;0.82;0.50;;;;;;;4.59;85.29;97930.31;4989920;28;20065;-76
2022/01/09 05:13:47;;;;;;;1.50;0.90;;;;;;;4.59;85.44;97925.88;4979915;28;20238;-76
2022/01/09 05:16:14;;;;;;;1.35;0.50;;;;;;;4.56;85.51;97955.91;4966489;28;20057;-76
2022/01/09 05:18:51;;;;;;;0.68;0.38;;;;;;;4.61;85.36;97967.81;4982077;28;20050;-76
2022/01/09 05:21:18;;;;;;;0.65;0.40;;;;;;;4.59;85.08;97973.19;4982397;28;20509;-76
2022/01/09 05:23:46;;;;;;;1.20;0.40;;;;;;;4.56;84.73;97999.78;4977958;28;20057;-76
2022/01/09 05:26:13;;;;;;;0.82;0.35;;;;;;;4.58;84.97;98013.59;4973833;28;20043;-76
2022/01/09 05:28:39;;;;;;;0.95;0.40;;;;;;;4.58;84.68;98010.97;4987348;28;20121;-76
2022/01/09 05:31:06;;;;;;;1.13;0.28;;;;;;;4.55;84.97;98022.59;4993281;28;20103;-76
2022/01/09 05:33:33;;;;;;;0.30;0.30;;;;;;;4.56;85.34;98028.69;4978544;28;20429;-76
2022/01/09 05:36:00;;;;;;;0.85;0.40;;;;;;;4.56;84.61;98036.56;4985564;28;20100;-76
2022/01/09 05:38:27;;;;;;;0.47;0.20;;;;;;;4.53;84.73;98045.56;4984343;28;20053;-76
2022/01/09 05:40:54;;;;;;;0.25;0.25;;;;;;;4.54;84.28;98049.84;4984998;28;20046;-76
2022/01/09 05:43:21;;;;;;;0.15;0.15;;;;;;;4.52;84.14;98057.03;4984226;28;20057;-76
2022/01/09 05:45:48;;;;;;;0.20;0.20;;;;;;;4.49;84.25;98061.75;4979788;28;20791;-76
2022/01/09 05:48:16;;;;;;;0.65;0.20;;;;;;;4.48;84.45;98066.19;4977686;28;20054;-76
2022/01/09 05:50:44;;;;;;;0.45;0.32;;;;;;;4.46;84.28;98073.38;4984849;28;20046;-76
2022/01/09 05:53:10;;;;;;;1.17;0.30;;;;;;;4.47;84.51;98082.91;4985916;28;20653;-76
2022/01/09 05:55:37;;;;;;;0.30;0.30;;;;;;;4.48;84.35;98087.22;4975500;28;20058;-76
2022/01/09 05:58:04;;;;;;;0.35;0.35;;;;;;;4.49;84.37;98088.03;4982792;28;20049;-76
2022/01/09 06:00:31;;;;;;;0.43;0.40;;;;;;;4.48;84.09;98079.34;4987111;28;20042;-76
2022/01/09 06:02:58;;;;;;;0.68;0.38;;;;;;;4.51;84.09;98099.25;4986089;28;20058;-76
2022/01/09 06:05:25;;;;;;;0.35;0.30;;;;;;;4.51;83.83;98112.38;4983073;28;20042;-76
2022/01/09 06:07:52;;;;;;;1.85;0.60;;;;;;;4.51;84.02;98096.63;4985344;28;20038;-76
2022/01/09 06:10:18;;;;;;;0.47;0.40;;;;;;;4.51;84.05;98117.66;4986021;28;20073;-76
2022/01/09 06:12:45;;;;;;;0.85;0.65;;;;;;;4.50;83.84;98132.59;4965310;28;20050;-76
2022/01/09 06:15:12;;;;;;;0.43;0.43;;;;;;;4.53;84.00;98137.56;4968143;28;20050;-77
2022/01/09 06:17:41;;;;;;;1.58;0.60;;;;;;;4.53;83.97;98139.38;4963928;28;20046;-76
2022/01/09 06:20:09;;;;;;;2.28;0.50;;;;;;;4.53;84.00;98142.81;4986424;28;20125;-76
2022/01/09 06:22:36;;;;;;;0.60;0.60;;;;;;;4.55;84.07;98137.41;4969209;28;20047;-76
2022/01/09 06:25:04;;;;;;;1.10;0.60;;;;;;;4.56;83.67;98147.78;4988952;28;20509;-76
2022/01/09 06:27:32;;;;;;;1.15;0.73;;;;;;;4.54;83.80;98157.63;4963270;28;20050;-76
2022/01/09 06:29:59;;;;;;;2.60;0.47;;;;;;;4.54;83.90;98164.69;4984786;28;20042;-76
2022/01/09 06:32:26;;;;;;;2.42;0.80;;;;;;;4.55;83.73;98156.66;4987364;28;20568;-76
2022/01/09 06:34:52;;;;;;;1.17;0.63;;;;;;;4.56;83.98;98160.13;4981574;28;20092;-76
2022/01/09 06:37:19;;;;;;;3.60;0.90;;;;;;;4.53;84.10;98169.13;4987418;28;20057;-76
2022/01/09 06:39:46;;;;;;;2.28;1.00;;;;;;;4.55;83.57;98177.69;4986833;28;20056;-76
2022/01/09 06:42:13;;;;;;;1.92;0.73;;;;;;;4.55;83.97;98177.69;4973718;28;20046;-76
2022/01/09 06:44:39;;;;;;;1.90;1.30;;;;;;;4.55;83.76;98177.69;4984202;28;20066;-76
2022/01/09 06:47:07;;;;;;;2.42;1.70;;;;;;;4.56;83.77;98199.53;4985089;28;20405;-76
2022/01/09 06:49:34;;;;;;;1.63;1.15;;;;;;;4.58;83.60;98192.34;4963830;28;20051;-76
2022/01/09 06:52:03;;;;;;;5.50;2.20;;;;;;;4.59;83.58;98204.53;4970458;28;20112;-76
2022/01/09 06:54:30;;;;;;;3.22;1.55;;;;;;;4.57;83.51;98209.09;4984116;28;20091;-76
2022/01/09 06:56:57;;;;;;;2.25;1.20;;;;;;;4.58;83.49;98213.38;4963351;28;20133;-76
2022/01/09 06:59:24;;;;;;;2.92;1.42;;;;;;;4.63;83.33;98218.22;4954809;28;20833;-76
2022/01/09 07:01:50;;;;;;;3.53;1.30;;;;;;;4.62;83.67;98227.06;4983379;28;20050;-76
2022/01/09 07:04:17;;;;;;;3.10;1.38;;;;;;;4.60;83.35;98236.88;4980117;28;20057;-76
2022/01/09 07:06:44;;;;;;;3.85;1.27;;;;;;;4.62;83.31;98227.91;4986731;28;20049;-76
2022/01/09 07:09:11;;;;;;;3.30;1.20;;;;;;;4.60;83.23;98244.78;4987641;28;20046;-76
2022/01/09 07:11:37;;;;;;;5.35;1.42;;;;;;;4.58;83.20;98260.72;4977831;28;20060;-76
2022/01/09 07:14:04;;;;;;;5.22;1.10;;;;;;;4.60;83.46;98240.34;4981709;28;20039;-76
2022/01/09 07:16:31;;;;;;;2.80;1.23;;;;;;;4.62;83.16;98245.47;4985140;28;20050;-76
2022/01/09 07:18:58;;;;;;;5.88;1.40;;;;;;;4.62;83.22;98251.56;4984690;28;20042;-76
2022/01/09 07:21:24;;;;;;;7.00;1.50;;;;;;;4.62;83.31;98275.22;4981930;28;20494;-76
2022/01/09 07:23:51;;;;;;;2.28;1.23;;;;;;;4.64;83.42;98269.84;4984684;28;20081;-76
2022/01/09 07:26:18;;;;;;;3.47;1.27;;;;;;;4.60;83.57;98278.94;4983568;28;20065;-76
2022/01/09 07:28:44;;;;;;;4.63;1.35;;;;;;;4.59;83.69;98293.06;4988559;28;20655;-76
2022/01/09 07:31:11;;;;;;;3.90;1.17;;;;;;;4.59;83.63;98300.97;4988111;28;20043;-76
2022/01/09 07:33:38;;;;;;;4.47;1.63;;;;;;;4.55;83.53;98311.75;4984476;28;20524;-76
2022/01/09 07:36:05;;;;;;;3.08;1.75;;;;;;;4.67;83.59;98309.00;4982687;28;20073;-76
2022/01/09 07:38:31;;;;;;;2.35;1.40;;;;;;;4.57;83.72;98317.69;4986834;28;20046;-76
2022/01/09 07:40:58;;;;;;;3.10;1.42;;;;;;;4.57;83.64;98327.38;4985481;28;20042;-76
2022/01/09 07:43:25;;;;;;;3.53;1.55;;;;;;;4.56;83.55;98328.34;4986214;28;20057;-76
2022/01/09 07:45:52;;;;;;;4.85;1.65;;;;;;;4.57;83.72;98333.47;4985421;28;20074;-76
2022/01/09 07:48:21;;;;;;;7.22;1.63;;;;;;;4.59;83.38;98348.28;4976518;28;20104;-76
2022/01/09 07:50:48;;;;;;;3.35;1.42;;;;;;;4.59;83.60;98333.34;4981007;28;20119;-76
2022/01/09 07:53:17;;;;;;;4.35;1.70;;;;;;;4.59;83.49;98337.78;4984659;28;20046;-76
2022/01/09 07:55:44;;;;;;;3.90;1.52;;;;;;;4.59;83.41;98338.59;4980332;28;20182;-76
2022/01/09 07:58:10;;;;;;;3.53;2.03;;;;;;;4.62;83.51;98346.22;4981483;28;20052;-76
2022/01/09 08:00:37;;;;;;;8.13;2.47;;;;;;;4.61;83.53;98352.44;4981543;28;20414;-76
2022/01/09 08:03:04;;;;;;;7.03;1.80;;;;;;;4.61;83.21;98347.19;4936362;28;20043;-76
2022/01/09 08:05:31;;;;;;;4.80;2.08;;;;;;;4.61;83.49;98356.88;4964152;28;20051;-76
2022/01/09 08:07:58;;;;;;;7.95;2.10;;;;;;;4.63;83.42;98358.41;4965711;28;20130;-76
2022/01/09 08:10:25;;;;;;;6.78;1.77;;;;;;;4.64;83.31;98370.56;4982720;28;20054;-76
2022/01/09 08:12:51;;;;;;;13.90;2.80;;;;;;;4.62;83.46;98361.16;4983407;28;20050;-77
2022/01/09 08:15:18;;;;;;;7.80;2.47;;;;;;;4.63;83.36;98374.19;4981936;28;20046;-76
2022/01/09 08:17:45;;;;;;;7.88;2.05;;;;;;;4.62;83.53;98377.75;4971794;28;20526;-76
2022/01/09 08:20:14;;;;;;;11.10;2.15;;;;;;;4.63;83.39;98379.44;4982006;28;20076;-76
2022/01/09 08:22:42;;;;;;;7.18;1.88;;;;;;;4.63;83.41;98383.84;4981991;28;20474;-76
2022/01/09 08:25:10;;;;;;;8.95;2.42;;;;;;;4.64;83.40;98386.34;4980342;28;20129;-76
2022/01/09 08:27:37;;;;;;;8.35;2.20;;;;;;;4.65;83.29;98395.06;4976904;28;20050;-76
2022/01/09 08:30:06;;;;;;;8.75;2.30;;;;;;;4.64;83.41;98401.28;4982681;28;20050;-76
2022/01/09 08:32:34;;;;;;;13.90;2.45;;;;;;;4.65;83.30;98406.41;4983996;28;20046;-76
2022/01/09 08:35:04;;;;;;;11.23;2.58;;;;;;;4.68;82.94;98418.44;4981314;28;20122;-76
2022/01/09 08:37:30;;;;;;;9.13;2.30;;;;;;;4.67;83.34;98422.88;4984057;28;20053;-76
2022/01/09 08:39:57;;;;;;;9.63;3.05;;;;;;;4.68;83.03;98421.06;4983044;28;20043;-76
2022/01/09 08:42:24;;;;;;;15.23;3.20;;;;;;;4.65;83.12;98437.13;4967763;28;20050;-76
2022/01/09 08:44:50;;;;;;;14.93;2.20;;;;;;;4.68;83.13;98447.38;4981137;28;20054;-76
2022/01/09 08:47:17;;;;;;;9.13;2.30;;;;;;;4.69;82.96;98455.13;4968163;28;20390;-76
2022/01/09 08:49:44;;;;;;;10.50;2.17;;;;;;;4.68;82.87;98460.50;4980812;28;20050;-76
2022/01/09 08:52:11;;;;;;;9.60;2.55;;;;;;;4.68;82.83;98469.25;4981592;28;20046;-76
2022/01/09 08:54:38;;;;;;;10.25;2.67;;;;;;;4.69;82.82;98467.47;4962419;28;20046;-76
2022/01/09 08:57:06;;;;;;;12.27;3.28;;;;;;;4.67;82.57;98480.72;4979697;28;20133;-76
2022/01/09 08:59:33;;;;;;;11.70;2.72;;;;;;;4.68;82.49;98489.44;4985305;28;20057;-76
2022/01/09 09:02:01;;;;;;;14.65;3.28;;;;;;;4.70;82.44;98496.22;4984305;28;20050;-75
2022/01/09 09:04:28;;;;;;;8.98;2.80;;;;;;;4.69;82.71;98501.63;4981418;28;20046;-76
2022/01/09 09:06:55;;;;;;;5.72;2.20;;;;;;;4.72;82.91;98507.47;4984862;28;20137;-76
2022/01/09 09:09:21;;;;;;;11.68;2.75;;;;;;;4.71;82.72;98513.69;4988395;28;20508;-76
2022/01/09 09:11:49;;;;;;;9.65;1.85;;;;;;;4.70;82.39;98522.53;4965351;28;20407;-76
2022/01/09 09:14:22;;;;;;;;;;;;;;;4.51;82.70;98525.06;4984233;28;20042;-76
2022/01/09 09:16:49;;;;;;;5.93;2.63;;;;;;;4.65;82.61;98529.97;4980942;28;19925;-76
2022/01/09 09:19:15;;;;;;;12.38;2.40;;;;;;;4.68;82.55;98529.75;4980471;28;20046;-76
2022/01/09 09:21:43;;;;;;;13.05;2.75;;;;;;;4.69;82.50;98538.44;4979165;28;20042;-76
2022/01/09 09:24:10;;;;;;;14.05;3.10;;;;;;;4.68;82.56;98540.25;4967190;28;20073;-76
2022/01/09 09:26:37;;;;;;;15.88;3.22;;;;;;;4.70;82.62;98551.44;4982496;28;20061;-76
2022/01/09 09:29:05;;;;;;;8.52;2.55;;;;;;;4.72;82.54;98552.16;4983767;28;20038;-76
2022/01/09 09:31:32;;;;;;;8.80;2.80;;;;;;;4.77;82.08;98557.03;4985475;28;20042;-76
2022/01/09 09:33:59;;;;;;;12.48;2.50;;;;;;;4.78;81.96;98558.69;4982773;28;20050;-77
2022/01/09 09:36:28;;;;;;;11.05;2.47;;;;;;;4.73;81.99;98566.13;4982218;28;20093;-77
2022/01/09 09:38:55;;;;;;;10.65;2.53;;;;;;;4.74;82.26;98567.81;4986758;28;20589;-77
2022/01/09 09:41:23;;;;;;;16.50;2.83;;;;;;;4.74;82.24;98566.00;4982904;28;20046;-77
2022/01/09 09:43:52;;;;;;;10.55;3.40;;;;;;;4.77;82.09;98568.38;5000792;28;20073;-77
2022/01/09 09:46:24;;;;;;;15.35;2.85;;;;;;;4.76;82.25;98576.41;4981476;28;20101;-77
2022/01/09 09:48:54;;;;;;;18.58;2.90;;;;;;;4.82;82.04;98578.53;4917896;28;20472;-77
2022/01/09 09:51:25;;;;;;;10.07;2.72;;;;;;;4.83;82.01;98582.81;4940148;28;20061;-77
2022/01/09 09:53:53;;;;;;;12.35;3.45;;;;;;;4.83;81.35;98585.44;4941644;28;20170;-77
2022/01/09 09:56:23;;;;;;;11.00;2.20;;;;;;;4.81;81.50;98584.75;4943080;28;20404;-77
2022/01/09 09:58:50;;;;;;;7.03;2.85;;;;;;;4.83;81.50;98579.34;4951271;28;20528;-77
2022/01/09 10:01:34;;;;;;;14.32;3.25;;;;;;;4.76;81.47;98603.53;4944417;28;20047;-77
2022/01/09 10:04:08;;;;;;;11.23;2.50;;;;;;;4.79;81.41;98594.56;4929177;28;20122;-77
2022/01/09 10:06:44;;;;;;;12.68;2.67;;;;;;;4.73;81.55;98602.94;4943182;28;20168;-76
2022/01/09 10:09:19;;;;;;;10.38;2.42;;;;;;;4.83;81.17;98603.00;4941759;28;20054;-76
2022/01/09 10:11:48;;;;;;;16.75;2.88;;;;;;;4.78;81.30;98614.78;4924810;28;20039;-77
2022/01/09 10:14:19;;;;;;;9.27;2.30;;;;;;;4.82;81.65;98617.13;4941155;28;20047;-77
2022/01/09 10:17:16;;;;;;;12.02;2.25;;;;;;;4.73;81.33;98616.09;4927025;28;20054;-81
2022/01/09 10:19:45;;;;;;;7.20;1.50;;;;;;;4.83;81.43;98626.69;4937806;28;20148;-78
2022/01/09 10:22:25;;;;;;;12.90;3.58;;;;;;;4.78;81.66;98627.06;4989015;28;20042;-81
2022/01/09 10:24:52;;;;;;;12.75;2.65;;;;;;;4.85;81.66;98630.03;4971388;28;20058;-78
2022/01/09 10:27:30;;;;;;;21.17;4.03;;;;;;;4.79;81.59;98623.50;4982784;28;20407;-78
2022/01/09 10:29:57;;;;;;;13.80;2.60;;;;;;;4.87;81.63;98628.09;4977719;28;20050;-79
2022/01/09 10:32:28;;;;;;;15.85;2.67;;;;;;;4.89;81.45;98626.19;4987615;28;20104;-80
2022/01/09 10:35:08;;;;;;;14.43;2.88;;;;;;;4.82;81.22;98625.84;4994170;28;20069;-78
2022/01/09 10:37:36;;;;;;;12.45;2.88;;;;;;;4.90;81.54;98633.94;4990855;28;20062;-77
2022/01/09 10:40:08;;;;;;;10.23;3.05;;;;;;;4.89;81.28;98629.66;4964042;28;20043;-79
2022/01/09 10:42:35;;;;;;;18.10;3.67;;;;;;;4.91;81.61;98637.38;4968090;28;20062;-78
2022/01/09 10:45:22;;;;;;;8.50;3.22;;;;;;;4.86;81.04;98635.16;4977555;28;20079;-77
2022/01/09 10:47:54;;;;;;;13.48;3.05;;;;;;;4.96;81.17;98633.44;4945570;28;20064;-79
2022/01/09 10:50:29;;;;;;;15.75;2.45;;;;;;;4.95;81.10;98638.81;4982042;28;20124;-78
2022/01/09 10:53:18;;;;;;;9.27;2.50;;;;;;;4.91;81.01;98642.66;4981872;28;20050;-78
2022/01/09 10:55:46;;;;;;;10.55;2.50;;;;;;;4.97;81.41;98648.25;4967152;28;20069;-79
2022/01/09 10:58:17;;;;;;;12.65;2.88;;;;;;;4.96;81.03;98640.47;4984246;28;20050;-79
2022/01/09 11:00:44;;;;;;;16.08;3.08;;;;;;;4.98;81.40;98638.53;4983435;28;20053;-76
2022/01/09 11:03:10;;;;;;;9.65;3.25;;;;;;;4.98;81.43;98639.38;4988658;28;20069;-77
2022/01/09 11:05:38;;;;;;;16.65;2.78;;;;;;;5.04;81.29;98634.56;4987738;28;20042;-77
2022/01/09 11:08:07;;;;;;;20.92;2.65;;;;;;;5.02;81.08;98641.75;4984220;28;20634;-78
2022/01/09 11:10:34;;;;;;;7.95;2.20;;;;;;;5.06;80.99;98643.97;4985599;28;20050;-78
2022/01/09 11:13:02;;;;;;;15.80;2.88;;;;;;;5.08;81.00;98641.22;4983803;28;20042;-78
2022/01/09 11:15:31;;;;;;;13.90;2.85;;;;;;;5.11;80.79;98649.69;4987088;28;20050;-78
2022/01/09 11:18:01;;;;;;;15.40;2.60;;;;;;;5.11;80.42;98660.22;4996230;28;20407;-78
2022/01/09 11:20:28;;;;;;;16.67;3.45;;;;;;;5.10;80.81;98663.00;4982552;28;20057;-78
2022/01/09 11:22:58;;;;;;;13.18;3.10;;;;;;;5.11;80.34;98656.75;4987733;28;20529;-78
2022/01/09 11:25:51;;;;;;;16.63;3.05;;;;;;;5.03;80.32;98660.03;4987278;28;20417;-77
2022/01/09 11:28:24;;;;;;;14.40;2.42;;;;;;;5.03;79.74;98649.50;4936026;28;20399;-77
2022/01/09 11:31:00;;;;;;;8.43;2.70;;;;;;;5.04;80.12;98666.97;4982723;28;20042;-77
2022/01/09 11:33:36;;;;;;;12.75;3.42;;;;;;;5.01;79.97;98672.47;5009307;28;20049;-75
2022/01/09 11:36:05;;;;;;;11.85;3.08;;;;;;;5.11;79.82;98668.09;4985394;28;20129;-77
2022/01/09 11:38:46;;;;;;;11.68;3.20;;;;;;;4.96;79.89;98666.78;4984765;28;20046;-76
2022/01/09 11:41:20;;;;;;;15.70;3.03;;;;;;;4.97;80.31;98668.47;4984819;28;20042;-76
2022/01/09 11:44:00;;;;;;;23.50;5.82;;;;;;;5.02;80.30;98662.81;4986029;28;20046;-76
2022/01/09 11:46:32;;;;;;;24.33;6.60;;;;;;;4.99;80.37;98663.91;4971064;28;20045;-75